createdAt,value
2023-01-21T00:00:11.291Z,100567.89
2023-01-21T00:02:38.073Z,100566.71
2023-01-21T00:05:05.076Z,100568.95
2023-01-21T00:07:31.832Z,100565.31
2023-01-21T00:09:58.442Z,100561.36
2023-01-21T00:12:25.075Z,100557.95
2023-01-21T00:14:51.739Z,100557.64
2023-01-21T00:17:18.395Z,100553.15
2023-01-21T00:19:45.009Z,100547.60
2023-01-21T00:22:12.418Z,100543.48
2023-01-21T00:24:39.052Z,100544.91
2023-01-21T00:27:05.831Z,100540.52
2023-01-21T00:29:32.487Z,100539.17
2023-01-21T00:31:59.217Z,100537.71
2023-01-21T00:34:25.880Z,100532.83
2023-01-21T00:36:52.857Z,100534.14
2023-01-21T00:39:20.316Z,100527.77
2023-01-21T00:41:47.020Z,100528.48
2023-01-21T00:44:13.852Z,100525.20
2023-01-21T00:46:40.500Z,100522.28
2023-01-21T00:49:07.340Z,100521.92
2023-01-21T00:56:06.881Z,100513.71
2023-01-21T00:58:34.075Z,100515.32
2023-01-21T01:01:06.608Z,100510.94
2023-01-21T01:03:34.036Z,100513.66
2023-01-21T01:06:13.466Z,100514.83
2023-01-21T01:08:40.291Z,100512.83
2023-01-21T01:11:07.456Z,100511.35
2023-01-21T01:13:35.945Z,100512.09
2023-01-21T01:16:03.076Z,100514.18
2023-01-21T01:18:32.651Z,100510.52
2023-01-21T01:21:00.127Z,100510.06
2023-01-21T01:23:26.955Z,100505.02
2023-01-21T01:26:04.819Z,100508.25
2023-01-21T01:28:33.022Z,100503.92
2023-01-21T01:31:00.474Z,100497.86
2023-01-21T01:33:27.902Z,100494.95
2023-01-21T01:35:54.814Z,100491.27
2023-01-21T01:38:22.156Z,100487.21
2023-01-21T01:40:50.894Z,100488.08
2023-01-21T01:43:24.424Z,100483.13
2023-01-21T01:45:52.086Z,100478.98
2023-01-21T01:48:31.360Z,100470.58
2023-01-21T01:51:03.402Z,100469.83
2023-01-21T01:53:32.069Z,100462.61
2023-01-21T01:55:59.839Z,100467.41
2023-01-21T01:58:27.683Z,100463.42
2023-01-21T02:00:54.690Z,100458.04
2023-01-21T02:03:40.386Z,100450.59
2023-01-21T02:06:07.675Z,100444.29
2023-01-21T02:08:36.388Z,100441.69
2023-01-21T02:11:10.699Z,100430.09
2023-01-21T02:18:16.070Z,100420.05
2023-01-21T02:21:07.749Z,100419.52
2023-01-21T02:23:34.359Z,100413.53
2023-01-21T02:26:49.059Z,100409.18
2023-01-21T02:29:36.980Z,100404.45
2023-01-21T02:32:16.319Z,100401.23
2023-01-21T02:35:01.378Z,100393.23
2023-01-21T02:38:03.680Z,100390.64
2023-01-21T02:40:37.525Z,100384.59
2023-01-21T02:43:16.235Z,100378.20
2023-01-21T02:45:51.940Z,100375.31
2023-01-21T02:48:31.729Z,100371.59
2023-01-21T02:50:59.203Z,100364.88
2023-01-21T02:53:30.757Z,100364.14
2023-01-21T02:56:12.067Z,100359.70
2023-01-21T02:58:43.613Z,100358.81
2023-01-21T03:01:32.073Z,100355.09
2023-01-21T03:04:12.939Z,100355.14
2023-01-21T03:06:58.589Z,100350.41
2023-01-21T03:09:27.831Z,100348.86
2023-01-21T03:12:16.535Z,100352.73
2023-01-21T03:15:38.992Z,100343.20
2023-01-21T03:18:43.511Z,100338.42
2023-01-21T03:21:24.373Z,100336.04
2023-01-21T03:23:53.439Z,100331.81
2023-01-21T03:26:29.644Z,100331.66
2023-01-21T03:29:01.307Z,100331.45
2023-01-21T03:31:33.126Z,100322.30
2023-01-21T03:34:05.614Z,100323.83
2023-01-21T03:36:37.100Z,100320.65
2023-01-21T03:39:34.906Z,100319.45
2023-01-21T03:42:02.694Z,100321.02
2023-01-21T03:44:29.458Z,100318.61
2023-01-21T03:47:17.887Z,100311.30
2023-01-21T03:49:58.408Z,100307.52
2023-01-21T03:52:26.816Z,100301.05
2023-01-21T03:54:54.423Z,100299.45
2023-01-21T03:57:21.359Z,100297.60
2023-01-21T03:59:47.974Z,100298.75
2023-01-21T04:02:20.103Z,100291.61
2023-01-21T04:04:47.754Z,100292.29
2023-01-21T04:07:16.240Z,100291.23
2023-01-21T04:09:43.408Z,100287.89
2023-01-21T04:12:10.516Z,100294.13
2023-01-21T04:14:37.621Z,100298.36
2023-01-21T04:17:04.955Z,100299.29
2023-01-21T04:19:31.593Z,100299.19
2023-01-21T04:21:58.399Z,100300.05
2023-01-21T04:24:25.462Z,100299.38
2023-01-21T04:26:52.803Z,100300.71
2023-01-21T04:29:19.822Z,100303.66
2023-01-21T04:31:47.734Z,100307.99
2023-01-21T04:34:16.937Z,100305.36
2023-01-21T04:36:43.666Z,100310.75
2023-01-21T04:39:11.619Z,100301.64
2023-01-21T04:41:38.222Z,100306.09
2023-01-21T04:44:05.129Z,100303.39
2023-01-21T04:46:31.814Z,100308.11
2023-01-21T04:48:58.486Z,100309.96
2023-01-21T04:51:25.201Z,100307.55
2023-01-21T04:53:51.859Z,100310.36
2023-01-21T04:56:18.527Z,100311.56
2023-01-21T04:58:45.204Z,100312.20
2023-01-21T05:01:11.999Z,100311.20
2023-01-21T05:03:38.648Z,100319.38
2023-01-21T05:06:05.368Z,100321.05
2023-01-21T05:08:32.055Z,100320.63
2023-01-21T05:10:58.753Z,100320.02
2023-01-21T05:13:25.393Z,100319.88
2023-01-21T05:15:52.761Z,100315.64
2023-01-21T05:18:19.440Z,100320.39
2023-01-21T05:20:46.215Z,100320.91
2023-01-21T05:23:12.947Z,100320.45
2023-01-21T05:25:39.554Z,100319.67
2023-01-21T05:28:06.172Z,100324.45
2023-01-21T05:30:32.891Z,100319.27
2023-01-21T05:32:59.497Z,100321.54
2023-01-21T05:35:26.199Z,100322.63
2023-01-21T05:37:52.821Z,100320.00
2023-01-21T05:40:19.771Z,100320.48
2023-01-21T05:42:47.029Z,100320.36
2023-01-21T05:45:14.643Z,100321.61
2023-01-21T05:47:41.380Z,100329.12
2023-01-21T05:50:09.124Z,100324.61
2023-01-21T05:52:36.273Z,100326.02
2023-01-21T05:55:03.850Z,100324.34
2023-01-21T05:57:31.634Z,100325.87
2023-01-21T05:59:59.010Z,100328.95
2023-01-21T06:02:25.884Z,100332.92
2023-01-21T06:04:52.791Z,100330.25
2023-01-21T06:07:19.479Z,100331.91
2023-01-21T06:09:46.113Z,100334.16
2023-01-21T06:12:12.764Z,100337.08
2023-01-21T06:14:39.398Z,100340.88
2023-01-21T06:17:05.982Z,100340.48
2023-01-21T06:19:32.577Z,100342.02
2023-01-21T06:21:59.207Z,100339.48
2023-01-21T06:24:25.797Z,100341.80
2023-01-21T06:26:53.311Z,100345.95
2023-01-21T06:29:19.974Z,100350.03
2023-01-21T06:31:46.824Z,100349.23
2023-01-21T06:34:13.766Z,100353.98
2023-01-21T06:36:43.523Z,100356.89
2023-01-21T06:39:10.983Z,100357.13
2023-01-21T06:41:37.793Z,100361.45
2023-01-21T06:44:05.399Z,100360.65
2023-01-21T06:46:32.286Z,100362.73
2023-01-21T06:48:59.472Z,100365.05
2023-01-21T06:51:26.207Z,100368.12
2023-01-21T06:53:52.980Z,100375.16
2023-01-21T06:56:20.012Z,100376.16
2023-01-21T06:58:46.599Z,100379.77
2023-01-21T07:01:13.365Z,100379.91
2023-01-21T07:03:39.969Z,100387.76
2023-01-21T07:06:07.220Z,100386.17
2023-01-21T07:08:33.969Z,100392.12
2023-01-21T07:11:00.603Z,100395.51
2023-01-21T07:13:27.314Z,100397.05
2023-01-21T07:15:59.885Z,100397.77
2023-01-21T07:18:26.663Z,100402.75
2023-01-21T07:20:53.185Z,100403.04
2023-01-21T07:23:19.941Z,100410.23
2023-01-21T07:25:46.680Z,100411.35
2023-01-21T07:28:13.413Z,100412.06
2023-01-21T07:30:40.203Z,100413.02
2023-01-21T07:33:07.601Z,100415.17
2023-01-21T07:35:35.445Z,100410.14
2023-01-21T07:38:02.750Z,100411.68
2023-01-21T07:40:29.546Z,100407.02
2023-01-21T07:42:56.633Z,100408.50
2023-01-21T07:45:24.710Z,100411.64
2023-01-21T07:47:51.579Z,100410.67
2023-01-21T07:50:18.164Z,100415.85
2023-01-21T07:52:44.739Z,100413.88
2023-01-21T07:55:12.710Z,100420.34
2023-01-21T07:57:39.932Z,100424.64
2023-01-21T08:00:07.411Z,100425.02
2023-01-21T08:02:39.107Z,100424.11
2023-01-21T08:05:07.280Z,100426.23
2023-01-21T08:07:33.976Z,100422.97
2023-01-21T08:10:00.812Z,100427.52
2023-01-21T08:12:27.510Z,100423.52
2023-01-21T08:14:54.611Z,100433.92
2023-01-21T08:17:21.342Z,100427.05
2023-01-21T08:19:48.080Z,100435.57
2023-01-21T08:22:14.650Z,100432.75
2023-01-21T08:24:41.339Z,100436.89
2023-01-21T08:27:08.101Z,100435.27
2023-01-21T08:29:34.643Z,100432.10
2023-01-21T08:32:01.681Z,100434.05
2023-01-21T08:34:28.623Z,100436.64
2023-01-21T08:36:55.258Z,100435.18
2023-01-21T08:39:22.124Z,100442.34
2023-01-21T08:41:48.953Z,100444.17
2023-01-21T08:44:15.698Z,100443.34
2023-01-21T08:46:42.292Z,100447.21
2023-01-21T08:49:09.105Z,100450.75
2023-01-21T08:51:35.636Z,100450.57
2023-01-21T08:54:02.288Z,100453.06
2023-01-21T08:56:28.989Z,100459.02
2023-01-21T08:58:57.364Z,100455.72
2023-01-21T09:01:25.913Z,100463.58
2023-01-21T09:04:00.549Z,100469.88
2023-01-21T09:11:03.778Z,100471.94
2023-01-21T09:13:32.126Z,100476.50
2023-01-21T09:15:59.060Z,100476.40
2023-01-21T09:22:39.515Z,100477.61
2023-01-21T09:25:10.221Z,100478.27
2023-01-21T09:27:37.676Z,100472.48
2023-01-21T09:30:04.685Z,100473.65
2023-01-21T09:32:31.356Z,100480.43
2023-01-21T09:34:58.033Z,100476.80
2023-01-21T09:37:24.673Z,100475.98
2023-01-21T09:39:51.271Z,100478.35
2023-01-21T09:42:23.214Z,100479.08
2023-01-21T09:49:19.333Z,100474.63
2023-01-21T09:52:23.683Z,100469.45
2023-01-21T09:54:50.647Z,100466.92
2023-01-21T09:57:38.971Z,100463.80
2023-01-21T10:00:37.006Z,100460.23
2023-01-21T10:03:32.620Z,100457.60
2023-01-21T10:06:35.242Z,100453.88
2023-01-21T10:09:01.875Z,100452.79
2023-01-21T10:11:52.918Z,100448.07
2023-01-21T10:14:39.220Z,100444.00
2023-01-21T10:17:42.866Z,100438.55
2023-01-21T10:20:20.871Z,100436.46
2023-01-21T10:23:12.708Z,100439.92
2023-01-21T10:25:41.098Z,100432.61
2023-01-21T10:28:21.553Z,100425.92
2023-01-21T10:31:06.115Z,100421.06
2023-01-21T10:33:34.097Z,100412.50
2023-01-21T10:36:26.986Z,100412.52
2023-01-21T10:39:31.392Z,100407.94
2023-01-21T10:42:16.704Z,100405.77
2023-01-21T10:45:14.273Z,100404.27
2023-01-21T10:48:18.255Z,100397.23
2023-01-21T10:51:02.294Z,100391.72
2023-01-21T10:53:47.993Z,100385.70
2023-01-21T10:56:23.762Z,100381.31
2023-01-21T10:59:22.112Z,100380.39
2023-01-21T11:05:51.964Z,100362.99
2023-01-21T11:08:21.622Z,100363.07
2023-01-21T11:10:53.407Z,100360.83
2023-01-21T11:13:20.067Z,100353.98
2023-01-21T11:15:52.413Z,100351.86
2023-01-21T11:18:28.983Z,100354.34
2023-01-21T11:20:59.250Z,100351.54
2023-01-21T11:23:31.691Z,100353.49
2023-01-21T11:26:09.420Z,100350.36
2023-01-21T11:28:37.041Z,100347.70
2023-01-21T11:31:14.287Z,100345.61
2023-01-21T11:33:43.220Z,100339.77
2023-01-21T11:36:18.608Z,100337.48
2023-01-21T11:38:59.748Z,100328.45
2023-01-21T11:41:26.449Z,100329.56
2023-01-21T11:44:07.456Z,100326.70
2023-01-21T11:46:39.507Z,100325.66
2023-01-21T11:49:27.670Z,100323.88
2023-01-21T11:52:15.633Z,100318.32
2023-01-21T11:54:42.612Z,100315.93
2023-01-21T11:57:19.626Z,100313.73
2023-01-21T11:59:48.138Z,100309.73
2023-01-21T12:02:31.860Z,100305.46
2023-01-21T12:05:09.200Z,100302.06
2023-01-21T12:07:40.474Z,100299.40
2023-01-21T12:10:13.378Z,100298.75
2023-01-21T12:13:12.172Z,100295.95
2023-01-21T12:15:38.817Z,100288.20
2023-01-21T12:18:31.003Z,100288.84
2023-01-21T12:21:18.864Z,100287.33
2023-01-21T12:24:13.336Z,100287.65
2023-01-21T12:26:53.271Z,100288.10
2023-01-21T12:29:25.706Z,100284.09
2023-01-21T12:32:03.334Z,100287.16
2023-01-21T12:34:40.066Z,100287.94
2023-01-21T12:37:16.459Z,100280.94
2023-01-21T12:39:44.675Z,100281.85
2023-01-21T12:42:21.316Z,100277.41
2023-01-21T12:44:59.646Z,100281.30
2023-01-21T12:47:26.415Z,100281.00
2023-01-21T12:54:10.103Z,100282.08
2023-01-21T12:57:05.003Z,100281.65
2023-01-21T13:04:04.976Z,100279.86
2023-01-21T13:06:54.255Z,100285.13
2023-01-21T13:09:49.366Z,100282.98
2023-01-21T13:12:20.924Z,100284.42
2023-01-21T13:14:55.159Z,100283.70
2023-01-21T13:17:28.065Z,100283.33
2023-01-21T13:19:54.763Z,100284.91
2023-01-21T13:22:41.222Z,100290.44
2023-01-21T13:25:28.740Z,100295.80
2023-01-21T13:32:22.247Z,100299.13
2023-01-21T13:35:07.648Z,100303.70
2023-01-21T13:37:48.214Z,100310.14
2023-01-21T13:40:57.328Z,100310.59
2023-01-21T13:43:26.879Z,100310.92
2023-01-21T13:46:18.444Z,100309.57
2023-01-21T13:53:11.025Z,100318.98
2023-01-21T13:55:40.318Z,100323.97
2023-01-21T14:02:39.835Z,100326.95
2023-01-21T14:05:20.196Z,100333.37
2023-01-21T14:07:54.226Z,100334.74
2023-01-21T14:10:33.194Z,100339.70
2023-01-21T14:13:09.026Z,100341.02
2023-01-21T14:15:54.079Z,100340.69
2023-01-21T14:18:36.199Z,100348.32
2023-01-21T14:21:21.862Z,100351.94
2023-01-21T14:24:17.720Z,100353.46
2023-01-21T14:26:53.206Z,100356.27
2023-01-21T14:29:42.241Z,100362.68
2023-01-21T14:32:21.055Z,100368.11
2023-01-21T14:35:06.083Z,100375.65
2023-01-21T14:37:38.239Z,100377.45
2023-01-21T14:40:17.067Z,100381.73
2023-01-21T14:42:49.711Z,100380.11
2023-01-21T14:45:26.098Z,100385.73
2023-01-21T14:47:54.586Z,100384.94
2023-01-21T14:50:51.074Z,100387.14
2023-01-21T14:53:19.272Z,100395.05
2023-01-21T14:55:45.988Z,100397.19
2023-01-21T14:58:21.995Z,100400.02
2023-01-21T15:00:49.107Z,100402.35
2023-01-21T15:03:27.607Z,100409.83
2023-01-21T15:06:00.662Z,100413.61
2023-01-21T15:08:45.584Z,100420.23
2023-01-21T15:11:41.012Z,100424.35
2023-01-21T15:14:25.773Z,100430.53
2023-01-21T15:16:52.567Z,100429.67
2023-01-21T15:19:20.840Z,100438.09
2023-01-21T15:21:59.823Z,100444.81
2023-01-21T15:24:30.610Z,100447.79
2023-01-21T15:27:22.736Z,100452.69
2023-01-21T15:29:55.341Z,100458.98
2023-01-21T15:32:37.470Z,100470.49
2023-01-21T15:35:13.574Z,100465.26
2023-01-21T15:37:44.000Z,100468.27
2023-01-21T15:40:21.706Z,100473.99
2023-01-21T15:42:58.375Z,100474.16
2023-01-21T15:45:43.859Z,100483.42
2023-01-21T15:48:16.284Z,100480.80
2023-01-21T15:50:57.378Z,100484.63
2023-01-21T15:57:54.607Z,100481.36
2023-01-21T16:00:43.785Z,100487.06
2023-01-21T16:03:33.021Z,100485.58
2023-01-21T16:06:07.780Z,100488.55
2023-01-21T16:08:58.248Z,100483.61
2023-01-21T16:11:31.910Z,100484.14
2023-01-21T16:14:13.822Z,100487.55
2023-01-21T16:17:19.025Z,100490.05
2023-01-21T16:19:50.279Z,100493.74
2023-01-21T16:22:27.539Z,100492.44
2023-01-21T16:25:01.100Z,100486.70
2023-01-21T16:27:31.059Z,100493.15
2023-01-21T16:30:00.760Z,100497.39
2023-01-21T16:32:28.054Z,100492.16
2023-01-21T16:34:54.721Z,100491.65
2023-01-21T16:37:24.828Z,100496.00
2023-01-21T16:40:12.181Z,100499.15
2023-01-21T16:42:44.305Z,100499.52
2023-01-21T16:45:11.101Z,100502.13
2023-01-21T16:47:37.942Z,100501.23
2023-01-21T16:50:05.766Z,100501.38
2023-01-21T16:52:32.950Z,100502.88
2023-01-21T16:54:59.644Z,100499.91
2023-01-21T16:57:31.654Z,100502.59
2023-01-21T17:00:02.525Z,100507.36
2023-01-21T17:02:34.042Z,100507.15
2023-01-21T17:05:06.713Z,100509.16
2023-01-21T17:07:45.789Z,100509.71
2023-01-21T17:10:15.783Z,100516.23
2023-01-21T17:12:48.626Z,100516.48
2023-01-21T17:15:30.347Z,100517.07
2023-01-21T17:18:00.273Z,100518.52
2023-01-21T17:20:41.040Z,100519.31
2023-01-21T17:23:14.991Z,100520.66
2023-01-21T17:25:42.564Z,100517.04
2023-01-21T17:28:25.186Z,100525.80
2023-01-21T17:31:08.824Z,100529.78
2023-01-21T17:33:35.621Z,100535.61
2023-01-21T17:36:13.811Z,100534.20
2023-01-21T17:38:45.987Z,100534.70
2023-01-21T17:41:25.118Z,100539.14
2023-01-21T17:43:55.795Z,100538.02
2023-01-21T17:50:36.235Z,100545.73
2023-01-21T17:53:04.322Z,100548.59
2023-01-21T17:55:36.786Z,100552.97
2023-01-21T17:58:06.116Z,100556.70
2023-01-21T18:00:38.495Z,100554.66
2023-01-21T18:03:05.404Z,100554.94
2023-01-21T18:05:32.478Z,100556.52
2023-01-21T18:07:59.198Z,100557.74
2023-01-21T18:10:27.998Z,100557.19
2023-01-21T18:12:56.257Z,100558.86
2023-01-21T18:15:23.049Z,100566.13
2023-01-21T18:17:57.935Z,100572.81
2023-01-21T18:24:45.117Z,100577.54
2023-01-21T18:27:12.121Z,100579.58
2023-01-21T18:29:38.814Z,100581.42
2023-01-21T18:32:05.624Z,100587.88
2023-01-21T18:34:32.381Z,100587.45
2023-01-21T18:36:59.189Z,100589.30
2023-01-21T18:39:26.064Z,100591.56
2023-01-21T18:41:52.875Z,100593.56
2023-01-21T18:48:45.192Z,100600.66
2023-01-21T18:51:13.106Z,100599.56
2023-01-21T18:53:39.861Z,100599.94
2023-01-21T18:56:10.037Z,100599.33
2023-01-21T18:58:36.664Z,100602.89
2023-01-21T19:01:13.930Z,100600.96
2023-01-21T19:03:45.562Z,100599.32
2023-01-21T19:06:16.512Z,100593.66
2023-01-21T19:08:45.222Z,100593.47
2023-01-21T19:11:12.749Z,100598.69
2023-01-21T19:13:39.436Z,100598.65
2023-01-21T19:16:12.732Z,100600.95
2023-01-21T19:18:39.379Z,100606.08
2023-01-21T19:21:08.220Z,100609.82
2023-01-21T19:23:35.912Z,100613.67
2023-01-21T19:26:03.738Z,100615.50
2023-01-21T19:28:31.495Z,100619.49
2023-01-21T19:30:58.557Z,100620.00
2023-01-21T19:33:26.052Z,100621.37
2023-01-21T19:36:03.729Z,100623.82
2023-01-21T19:38:30.621Z,100626.11
2023-01-21T19:40:57.396Z,100634.00
2023-01-21T19:43:23.973Z,100638.88
2023-01-21T19:45:51.846Z,100638.92
2023-01-21T19:48:21.014Z,100640.12
2023-01-21T19:50:48.098Z,100641.20
2023-01-21T19:53:17.557Z,100646.30
2023-01-21T19:55:46.347Z,100653.11
2023-01-21T19:58:22.438Z,100655.44
2023-01-21T20:00:51.141Z,100659.30
2023-01-21T20:07:45.984Z,100669.60
2023-01-21T20:10:21.486Z,100676.81
2023-01-21T20:12:48.711Z,100678.33
2023-01-21T20:15:17.549Z,100683.54
2023-01-21T20:17:48.939Z,100681.65
2023-01-21T20:20:21.649Z,100687.23
2023-01-21T20:22:48.604Z,100689.08
2023-01-21T20:25:17.757Z,100689.27
2023-01-21T20:27:50.685Z,100695.43
2023-01-21T20:30:23.671Z,100698.92
2023-01-21T20:32:50.336Z,100702.20
2023-01-21T20:35:18.980Z,100703.61
2023-01-21T20:37:50.626Z,100704.35
2023-01-21T20:40:22.932Z,100711.05
2023-01-21T20:42:50.618Z,100713.66
2023-01-21T20:45:19.647Z,100718.11
2023-01-21T20:47:50.502Z,100713.90
2023-01-21T20:50:23.757Z,100718.11
2023-01-21T20:52:51.957Z,100715.30
2023-01-21T20:55:21.539Z,100720.88
2023-01-21T20:57:48.487Z,100723.89
2023-01-21T21:00:28.209Z,100726.41
2023-01-21T21:02:55.796Z,100723.15
2023-01-21T21:05:23.973Z,100716.48
2023-01-21T21:07:51.110Z,100719.14
2023-01-21T21:10:29.432Z,100726.13
2023-01-21T21:12:56.264Z,100727.33
2023-01-21T21:15:34.554Z,100729.95
2023-01-21T21:18:03.440Z,100724.73
2023-01-21T21:20:33.725Z,100723.55
2023-01-21T21:23:00.384Z,100726.71
2023-01-21T21:25:29.715Z,100729.39
2023-01-21T21:27:57.113Z,100729.63
2023-01-21T21:30:29.603Z,100731.38
2023-01-21T21:32:58.080Z,100737.70
2023-01-21T21:35:27.819Z,100741.38
2023-01-21T21:37:56.549Z,100744.69
2023-01-21T21:40:25.978Z,100748.39
2023-01-21T21:43:12.090Z,100748.58
2023-01-21T21:45:41.041Z,100751.01
2023-01-21T21:48:38.865Z,100752.98
2023-01-21T21:51:06.942Z,100752.15
2023-01-21T21:53:33.733Z,100750.73
2023-01-21T21:56:05.476Z,100756.11
2023-01-21T21:58:32.257Z,100757.98
2023-01-21T22:01:09.267Z,100754.85
2023-01-21T22:03:36.028Z,100754.80
2023-01-21T22:06:04.053Z,100755.91
2023-01-21T22:08:32.845Z,100760.34
2023-01-21T22:11:01.115Z,100763.60
2023-01-21T22:13:28.957Z,100762.63
2023-01-21T22:15:57.453Z,100764.20
2023-01-21T22:18:25.504Z,100761.66
2023-01-21T22:20:55.628Z,100763.33
2023-01-21T22:23:22.781Z,100769.11
2023-01-21T22:25:49.636Z,100768.23
2023-01-21T22:28:16.786Z,100766.88
2023-01-21T22:30:43.605Z,100764.45
2023-01-21T22:33:11.283Z,100766.59
2023-01-21T22:35:40.014Z,100767.67
2023-01-21T22:38:07.135Z,100768.43
2023-01-21T22:40:36.747Z,100766.22
2023-01-21T22:47:10.548Z,100765.80
2023-01-21T22:49:37.127Z,100761.41
2023-01-21T22:52:04.032Z,100765.38
2023-01-21T22:54:30.628Z,100764.30
2023-01-21T22:56:57.335Z,100763.75
2023-01-21T22:59:23.847Z,100765.63
2023-01-21T23:01:51.276Z,100769.52
2023-01-21T23:04:18.189Z,100768.06
2023-01-21T23:06:44.825Z,100767.38
2023-01-21T23:09:16.272Z,100768.77
2023-01-21T23:11:45.074Z,100769.35
2023-01-21T23:14:12.515Z,100775.55
2023-01-21T23:16:39.966Z,100774.04
2023-01-21T23:19:06.588Z,100775.45
2023-01-21T23:21:33.288Z,100775.92
2023-01-21T23:23:59.847Z,100770.50
2023-01-21T23:26:26.514Z,100769.83
2023-01-21T23:28:56.175Z,100771.06
2023-01-21T23:31:24.142Z,100770.00
2023-01-21T23:33:52.524Z,100769.98
2023-01-21T23:36:19.718Z,100768.20
2023-01-21T23:38:46.372Z,100772.56
2023-01-21T23:41:16.992Z,100770.86
2023-01-21T23:43:43.722Z,100769.67
2023-01-21T23:46:16.679Z,100775.48
2023-01-21T23:48:43.846Z,100771.40
2023-01-21T23:51:13.509Z,100774.52
2023-01-21T23:53:40.342Z,100771.52
2023-01-21T23:56:09.223Z,100768.70
2023-01-21T23:58:35.944Z,100771.19
